createdAt,value
2022-09-28T00:00:07.183Z,9.60
2022-09-28T00:01:07.171Z,9.60
2022-09-28T00:02:07.260Z,9.60
2022-09-28T00:03:07.208Z,9.59
2022-09-28T00:04:07.295Z,9.59
2022-09-28T00:05:07.116Z,9.58
2022-09-28T00:06:07.132Z,9.57
2022-09-28T00:07:07.138Z,9.56
2022-09-28T00:08:07.087Z,9.55
2022-09-28T00:09:07.087Z,9.54
2022-09-28T00:10:07.265Z,9.54
2022-09-28T00:11:07.072Z,9.53
2022-09-28T00:12:07.052Z,9.52
2022-09-28T00:13:07.026Z,9.51
2022-09-28T00:14:07.019Z,9.51
2022-09-28T00:15:07.015Z,9.50
2022-09-28T00:16:07.414Z,9.50
2022-09-28T00:17:06.991Z,9.49
2022-09-28T00:18:07.002Z,9.48
2022-09-28T00:19:07.209Z,9.47
2022-09-28T00:20:06.957Z,9.46
2022-09-28T00:21:06.976Z,9.45
2022-09-28T00:22:07.103Z,9.44
2022-09-28T00:23:06.916Z,9.43
2022-09-28T00:24:06.938Z,9.43
2022-09-28T00:25:06.913Z,9.43
2022-09-28T00:26:06.898Z,9.43
2022-09-28T00:27:06.922Z,9.43
2022-09-28T00:28:07.028Z,9.43
2022-09-28T00:29:06.889Z,9.43
2022-09-28T00:30:06.918Z,9.43
2022-09-28T00:31:06.921Z,9.43
2022-09-28T00:32:06.818Z,9.43
2022-09-28T00:33:06.808Z,9.43
2022-09-28T00:34:06.962Z,9.43
2022-09-28T00:35:06.797Z,9.42
2022-09-28T00:36:06.778Z,9.41
2022-09-28T00:37:06.770Z,9.40
2022-09-28T00:38:06.766Z,9.39
2022-09-28T00:39:06.750Z,9.38
2022-09-28T00:40:07.110Z,9.37
2022-09-28T00:41:06.745Z,9.36
2022-09-28T00:42:06.716Z,9.36
2022-09-28T00:43:06.708Z,9.35
2022-09-28T00:44:06.702Z,9.34
2022-09-28T00:45:06.697Z,9.33
2022-09-28T00:46:06.898Z,9.32
2022-09-28T00:47:06.728Z,9.31
2022-09-28T00:48:06.710Z,9.30
2022-09-28T00:49:06.638Z,9.29
2022-09-28T00:50:06.630Z,9.28
2022-09-28T00:51:06.615Z,9.27
2022-09-28T00:52:06.938Z,9.26
2022-09-28T00:53:06.596Z,9.25
2022-09-28T00:54:06.582Z,9.25
2022-09-28T00:55:06.579Z,9.24
2022-09-28T00:56:06.567Z,9.23
2022-09-28T00:57:06.563Z,9.23
2022-09-28T00:58:06.864Z,9.22
2022-09-28T00:59:06.530Z,9.22
2022-09-28T01:00:06.514Z,9.21
2022-09-28T01:01:06.624Z,9.21
2022-09-28T01:02:06.576Z,9.21
2022-09-28T01:03:06.490Z,9.20
2022-09-28T01:04:06.818Z,9.20
2022-09-28T01:05:06.458Z,9.19
2022-09-28T01:06:06.459Z,9.18
2022-09-28T01:07:06.447Z,9.17
2022-09-28T01:08:06.438Z,9.16
2022-09-28T01:09:06.417Z,9.15
2022-09-28T01:10:06.627Z,9.14
2022-09-28T01:11:06.397Z,9.13
2022-09-28T01:12:06.394Z,9.12
2022-09-28T01:13:06.382Z,9.10
2022-09-28T01:14:06.376Z,9.08
2022-09-28T01:15:06.347Z,9.06
2022-09-28T01:16:06.804Z,9.05
2022-09-28T01:17:06.350Z,9.04
2022-09-28T01:18:06.319Z,9.02
2022-09-28T01:19:06.308Z,9.01
2022-09-28T01:20:06.297Z,9.00
2022-09-28T01:21:06.303Z,9.00
2022-09-28T01:22:06.464Z,9.00
2022-09-28T01:23:06.270Z,9.00
2022-09-28T01:24:06.266Z,9.00
2022-09-28T01:25:06.238Z,9.00
2022-09-28T01:26:06.249Z,9.00
2022-09-28T01:27:06.264Z,8.99
2022-09-28T01:28:06.439Z,8.99
2022-09-28T01:29:06.223Z,8.97
2022-09-28T01:30:06.197Z,8.96
2022-09-28T01:31:06.188Z,8.94
2022-09-28T01:32:06.186Z,8.92
2022-09-28T01:33:06.223Z,8.90
2022-09-28T01:34:06.375Z,8.88
2022-09-28T01:35:06.127Z,8.86
2022-09-28T01:36:06.140Z,8.85
2022-09-28T01:37:06.122Z,8.84
2022-09-28T01:38:06.116Z,8.83
2022-09-28T01:39:06.123Z,8.83
2022-09-28T01:40:06.315Z,8.82
2022-09-28T01:41:06.067Z,8.81
2022-09-28T01:42:06.057Z,8.80
2022-09-28T01:43:06.045Z,8.80
2022-09-28T01:44:06.072Z,8.79
2022-09-28T01:45:06.034Z,8.78
2022-09-28T01:46:06.430Z,8.77
2022-09-28T01:47:06.001Z,8.76
2022-09-28T01:48:05.995Z,8.74
2022-09-28T01:49:06.026Z,8.73
2022-09-28T01:50:06.035Z,8.72
2022-09-28T01:51:05.964Z,8.71
2022-09-28T01:52:06.370Z,8.71
2022-09-28T01:53:05.948Z,8.70
2022-09-28T01:54:05.941Z,8.69
2022-09-28T01:55:05.933Z,8.67
2022-09-28T01:56:05.911Z,8.66
2022-09-28T01:57:05.908Z,8.64
2022-09-28T01:58:06.065Z,8.62
2022-09-28T01:59:05.930Z,8.60
2022-09-28T02:00:05.866Z,8.59
2022-09-28T02:01:05.907Z,8.57
2022-09-28T02:02:05.877Z,8.56
2022-09-28T02:03:05.849Z,8.54
2022-09-28T02:04:06.211Z,8.53
2022-09-28T02:05:05.818Z,8.52
2022-09-28T02:06:05.807Z,8.51
2022-09-28T02:07:05.802Z,8.51
2022-09-28T02:08:05.781Z,8.50
2022-09-28T02:09:05.756Z,8.50
2022-09-28T02:10:06.134Z,8.49
2022-09-28T02:11:05.766Z,8.49
2022-09-28T02:12:05.732Z,8.48
2022-09-28T02:13:05.742Z,8.47
2022-09-28T02:14:05.742Z,8.45
2022-09-28T02:15:05.719Z,8.44
2022-09-28T02:16:05.901Z,8.42
2022-09-28T02:17:05.726Z,8.41
2022-09-28T02:18:05.691Z,8.40
2022-09-28T02:19:05.716Z,8.40
2022-09-28T02:20:05.647Z,8.38
2022-09-28T02:21:05.637Z,8.37
2022-09-28T02:22:05.776Z,8.35
2022-09-28T02:23:05.635Z,8.34
2022-09-28T02:24:05.605Z,8.33
2022-09-28T02:25:05.607Z,8.32
2022-09-28T02:26:05.594Z,8.32
2022-09-28T02:27:05.569Z,8.31
2022-09-28T02:28:05.902Z,8.31
2022-09-28T02:29:05.548Z,8.31
2022-09-28T02:30:05.539Z,8.29
2022-09-28T02:31:05.624Z,8.27
2022-09-28T02:32:05.531Z,8.25
2022-09-28T02:33:05.504Z,8.22
2022-09-28T02:34:05.815Z,8.20
2022-09-28T02:35:05.492Z,8.18
2022-09-28T02:36:05.467Z,8.17
2022-09-28T02:37:05.470Z,8.17
2022-09-28T02:38:05.455Z,8.17
2022-09-28T02:39:05.447Z,8.17
2022-09-28T02:40:05.691Z,8.17
2022-09-28T02:41:05.444Z,8.16
2022-09-28T02:42:05.577Z,8.16
2022-09-28T02:43:05.489Z,8.15
2022-09-28T02:44:05.480Z,8.14
2022-09-28T02:45:05.505Z,8.14
2022-09-28T02:46:05.805Z,8.13
2022-09-28T02:47:05.360Z,8.11
2022-09-28T02:48:05.335Z,8.10
2022-09-28T02:49:20.966Z,8.10
2022-09-28T02:50:06.324Z,8.10
2022-09-28T02:51:05.363Z,8.10
2022-09-28T02:52:05.490Z,8.10
2022-09-28T02:53:05.292Z,8.10
2022-09-28T02:54:05.366Z,8.10
2022-09-28T02:55:05.289Z,8.10
2022-09-28T02:56:05.236Z,8.10
2022-09-28T02:57:05.239Z,8.09
2022-09-28T02:58:05.628Z,8.08
2022-09-28T02:59:05.226Z,8.06
2022-09-28T03:00:05.229Z,8.05
2022-09-28T03:01:05.242Z,8.03
2022-09-28T03:02:05.246Z,8.03
2022-09-28T03:03:05.195Z,8.03
2022-09-28T03:04:05.424Z,8.03
2022-09-28T03:05:05.163Z,8.03
2022-09-28T03:06:05.206Z,8.03
2022-09-28T03:07:05.144Z,8.03
2022-09-28T03:08:05.185Z,8.02
2022-09-28T03:09:05.176Z,8.01
2022-09-28T03:10:05.625Z,8.01
2022-09-28T03:11:05.085Z,8.00
2022-09-28T03:12:05.075Z,8.00
2022-09-28T03:13:05.066Z,7.99
2022-09-28T03:14:05.071Z,7.99
2022-09-28T03:15:05.044Z,7.99
2022-09-28T03:16:05.480Z,7.99
2022-09-28T03:17:05.032Z,7.99
2022-09-28T03:18:05.013Z,8.00
2022-09-28T03:19:05.004Z,8.00
2022-09-28T03:20:04.989Z,8.00
2022-09-28T03:21:04.987Z,7.99
2022-09-28T03:22:05.405Z,7.97
2022-09-28T03:23:24.830Z,7.96
2022-09-28T03:24:05.946Z,7.95
2022-09-28T03:25:04.939Z,7.94
2022-09-28T03:26:04.918Z,7.94
2022-09-28T03:27:04.926Z,7.93
2022-09-28T03:28:05.061Z,7.93
2022-09-28T03:29:04.924Z,7.94
2022-09-28T03:30:04.949Z,7.94
2022-09-28T03:31:04.930Z,7.94
2022-09-28T03:32:04.853Z,7.94
2022-09-28T03:33:04.859Z,7.94
2022-09-28T03:34:05.235Z,7.95
2022-09-28T03:35:04.843Z,7.96
2022-09-28T03:36:04.823Z,7.97
2022-09-28T03:37:04.799Z,7.97
2022-09-28T03:38:04.798Z,7.97
2022-09-28T03:39:04.787Z,7.97
2022-09-28T03:40:05.014Z,7.97
2022-09-28T03:41:04.767Z,7.96
2022-09-28T03:42:04.775Z,7.96
2022-09-28T03:43:04.748Z,7.96
2022-09-28T03:44:04.744Z,7.96
2022-09-28T03:45:04.724Z,7.97
2022-09-28T03:46:05.182Z,7.97
2022-09-28T03:47:04.703Z,7.98
2022-09-28T03:48:04.686Z,7.98
2022-09-28T03:49:04.676Z,7.98
2022-09-28T03:50:04.724Z,7.99
2022-09-28T03:51:04.664Z,7.99
2022-09-28T03:52:04.968Z,7.99
2022-09-28T03:53:04.630Z,7.99
2022-09-28T03:54:04.605Z,7.99
2022-09-28T03:55:04.624Z,7.99
2022-09-28T03:56:04.603Z,7.99
2022-09-28T03:57:04.583Z,7.99
2022-09-28T03:58:04.723Z,7.99
2022-09-28T03:59:04.563Z,7.99
2022-09-28T04:00:04.543Z,8.00
2022-09-28T04:01:04.649Z,8.00
2022-09-28T04:02:04.580Z,8.00
2022-09-28T04:03:04.521Z,8.00
2022-09-28T04:04:04.653Z,8.01
2022-09-28T04:05:04.508Z,8.01
2022-09-28T04:06:04.481Z,8.02
2022-09-28T04:07:04.475Z,8.03
2022-09-28T04:08:04.457Z,8.04
2022-09-28T04:09:04.447Z,8.05
2022-09-28T04:10:04.712Z,8.07
2022-09-28T04:11:04.431Z,8.08
2022-09-28T04:12:04.735Z,8.09
2022-09-28T04:13:08.337Z,8.09
2022-09-28T04:14:04.413Z,8.10
2022-09-28T04:15:04.391Z,8.10
2022-09-28T04:16:04.596Z,8.10
2022-09-28T04:17:04.380Z,8.10
2022-09-28T04:18:04.364Z,8.11
2022-09-28T04:19:04.365Z,8.11
2022-09-28T04:20:04.358Z,8.11
2022-09-28T04:21:04.321Z,8.12
2022-09-28T04:22:04.487Z,8.12
2022-09-28T04:23:04.296Z,8.12
2022-09-28T04:24:04.301Z,8.12
2022-09-28T04:25:04.311Z,8.12
2022-09-28T04:26:04.277Z,8.11
2022-09-28T04:27:04.252Z,8.10
2022-09-28T04:28:04.413Z,8.10
2022-09-28T04:29:06.786Z,8.10
2022-09-28T04:30:04.225Z,8.10
2022-09-28T04:31:04.215Z,8.10
2022-09-28T04:32:04.228Z,8.10
2022-09-28T04:33:04.192Z,8.10
2022-09-28T04:34:04.344Z,8.09
2022-09-28T04:35:04.177Z,8.09
2022-09-28T04:36:04.164Z,8.09
2022-09-28T04:37:04.164Z,8.09
2022-09-28T04:38:04.134Z,8.09
2022-09-28T04:39:04.132Z,8.08
2022-09-28T04:40:04.301Z,8.08
2022-09-28T04:41:04.110Z,8.07
2022-09-28T04:42:04.101Z,8.06
2022-09-28T04:43:04.084Z,8.06
2022-09-28T04:44:04.082Z,8.05
2022-09-28T04:45:04.058Z,8.05
2022-09-28T04:46:04.255Z,8.05
2022-09-28T04:47:05.286Z,8.04
2022-09-28T04:48:04.016Z,8.04
2022-09-28T04:49:04.032Z,8.03
2022-09-28T04:50:04.052Z,8.04
2022-09-28T04:51:04.013Z,8.04
2022-09-28T04:52:04.312Z,8.04
2022-09-28T04:53:03.972Z,8.04
2022-09-28T04:54:03.962Z,8.05
2022-09-28T04:55:03.961Z,8.05
2022-09-28T04:56:03.953Z,8.06
2022-09-28T04:57:03.931Z,8.07
2022-09-28T04:58:04.082Z,8.08
2022-09-28T04:59:03.922Z,8.09
2022-09-28T05:00:03.911Z,8.09
2022-09-28T05:01:03.925Z,8.10
2022-09-28T05:02:03.985Z,8.10
2022-09-28T05:03:03.942Z,8.11
2022-09-28T05:04:04.122Z,8.11
2022-09-28T05:05:03.852Z,8.12
2022-09-28T05:06:03.821Z,8.12
2022-09-28T05:07:03.821Z,8.13
2022-09-28T05:08:03.813Z,8.14
2022-09-28T05:09:03.797Z,8.14
2022-09-28T05:10:03.953Z,8.15
2022-09-28T05:11:03.769Z,8.15
2022-09-28T05:12:03.752Z,8.16
2022-09-28T05:13:03.760Z,8.17
2022-09-28T05:14:03.737Z,8.17
2022-09-28T05:15:03.738Z,8.18
2022-09-28T05:16:05.554Z,8.18
2022-09-28T05:17:03.721Z,8.19
2022-09-28T05:18:03.700Z,8.19
2022-09-28T05:19:03.728Z,8.20
2022-09-28T05:20:03.680Z,8.20
2022-09-28T05:21:03.670Z,8.20
2022-09-28T05:22:04.085Z,8.20
2022-09-28T05:23:03.650Z,8.20
2022-09-28T05:24:03.659Z,8.20
2022-09-28T05:25:03.637Z,8.19
2022-09-28T05:26:03.618Z,8.19
2022-09-28T05:27:03.607Z,8.18
2022-09-28T05:28:03.805Z,8.17
2022-09-28T05:29:03.586Z,8.16
2022-09-28T05:30:03.664Z,8.15
2022-09-28T05:31:03.570Z,8.16
2022-09-28T05:32:03.632Z,8.16
2022-09-28T05:33:03.547Z,8.17
2022-09-28T05:34:03.742Z,8.18
2022-09-28T05:35:03.516Z,8.18
2022-09-28T05:36:03.494Z,8.19
2022-09-28T05:37:03.543Z,8.19
2022-09-28T05:38:03.513Z,8.18
2022-09-28T05:39:03.492Z,8.16
2022-09-28T05:40:03.621Z,8.14
2022-09-28T05:41:06.555Z,8.14
2022-09-28T05:42:03.818Z,8.13
2022-09-28T05:43:03.428Z,8.13
2022-09-28T05:44:03.421Z,8.13
2022-09-28T05:45:03.417Z,8.13
2022-09-28T05:46:03.462Z,8.14
2022-09-28T05:47:03.399Z,8.14
2022-09-28T05:48:03.714Z,8.15
2022-09-28T05:49:03.371Z,8.16
2022-09-28T05:50:03.359Z,8.17
2022-09-28T05:51:03.349Z,8.18
2022-09-28T05:52:03.338Z,8.18
2022-09-28T05:53:03.359Z,8.19
2022-09-28T05:54:06.178Z,8.21
2022-09-28T05:55:03.302Z,8.22
2022-09-28T05:56:03.299Z,8.23
2022-09-28T05:57:03.273Z,8.24
2022-09-28T05:58:03.266Z,8.25
2022-09-28T05:59:03.257Z,8.26
2022-09-28T06:00:03.401Z,8.25
2022-09-28T06:01:03.285Z,8.25
2022-09-28T06:02:03.281Z,8.25
2022-09-28T06:03:07.948Z,8.26
2022-09-28T06:04:04.197Z,8.26
2022-09-28T06:05:03.189Z,8.27
2022-09-28T06:06:03.458Z,8.27
2022-09-28T06:07:03.168Z,8.28
2022-09-28T06:08:03.162Z,8.28
2022-09-28T06:09:03.166Z,8.29
2022-09-28T06:10:03.148Z,8.30
2022-09-28T06:11:03.228Z,8.31
2022-09-28T06:12:03.276Z,8.32
2022-09-28T06:13:03.120Z,8.33
2022-09-28T06:14:03.112Z,8.33
2022-09-28T06:15:03.081Z,8.34
2022-09-28T06:16:03.104Z,8.34
2022-09-28T06:17:03.137Z,8.35
2022-09-28T06:18:03.227Z,8.35
2022-09-28T06:19:03.041Z,8.35
2022-09-28T06:20:03.148Z,8.35
2022-09-28T06:21:03.036Z,8.36
2022-09-28T06:22:02.998Z,8.37
2022-09-28T06:23:02.992Z,8.37
2022-09-28T06:24:03.201Z,8.38
2022-09-28T06:25:02.971Z,8.39
2022-09-28T06:26:02.955Z,8.40
2022-09-28T06:27:02.962Z,8.41
2022-09-28T06:28:02.937Z,8.41
2022-09-28T06:29:02.928Z,8.42
2022-09-28T06:30:03.096Z,8.41
2022-09-28T06:31:02.989Z,8.40
2022-09-28T06:32:02.906Z,8.39
2022-09-28T06:33:02.887Z,8.38
2022-09-28T06:34:02.890Z,8.37
2022-09-28T06:35:02.864Z,8.37
2022-09-28T06:36:03.056Z,8.37
2022-09-28T06:37:02.841Z,8.37
2022-09-28T06:38:02.846Z,8.37
2022-09-28T06:39:02.821Z,8.37
2022-09-28T06:40:02.806Z,8.37
2022-09-28T06:41:02.834Z,8.37
2022-09-28T06:42:04.010Z,8.38
2022-09-28T06:43:02.766Z,8.38
2022-09-28T06:44:02.772Z,8.39
2022-09-28T06:45:02.767Z,8.39
2022-09-28T06:46:02.825Z,8.40
2022-09-28T06:47:02.740Z,8.40
2022-09-28T06:48:02.901Z,8.41
2022-09-28T06:49:02.706Z,8.41
2022-09-28T06:50:02.699Z,8.42
2022-09-28T06:51:02.700Z,8.42
2022-09-28T06:52:02.684Z,8.43
2022-09-28T06:53:02.675Z,8.43
2022-09-28T06:54:02.989Z,8.43
2022-09-28T06:55:02.708Z,8.44
2022-09-28T06:56:02.655Z,8.44
2022-09-28T06:57:02.623Z,8.45
2022-09-28T06:58:02.620Z,8.46
2022-09-28T06:59:02.605Z,8.47
2022-09-28T07:00:02.825Z,8.47
2022-09-28T07:01:02.634Z,8.48
2022-09-28T07:02:02.681Z,8.48
2022-09-28T07:03:02.559Z,8.48
2022-09-28T07:04:02.534Z,8.48
2022-09-28T07:05:02.561Z,8.49
2022-09-28T07:06:02.702Z,8.49
2022-09-28T07:07:02.567Z,8.49
2022-09-28T07:08:02.496Z,8.49
2022-09-28T07:09:19.736Z,8.49
2022-09-28T07:10:03.491Z,8.47
2022-09-28T07:11:02.463Z,8.46
2022-09-28T07:12:02.675Z,8.45
2022-09-28T07:13:02.503Z,8.43
2022-09-28T07:14:02.443Z,8.42
2022-09-28T07:15:02.435Z,8.40
2022-09-28T07:16:02.410Z,8.39
2022-09-28T07:17:13.201Z,8.38
2022-09-28T07:18:04.219Z,8.37
2022-09-28T07:19:02.376Z,8.38
2022-09-28T07:20:12.682Z,8.38
2022-09-28T07:21:18.379Z,8.38
2022-09-28T07:22:05.355Z,8.38
2022-09-28T07:23:14.838Z,8.39
2022-09-28T07:24:03.548Z,8.39
2022-09-28T07:25:02.337Z,8.39
2022-09-28T07:26:02.531Z,8.40
2022-09-28T07:27:02.299Z,8.40
2022-09-28T07:28:02.278Z,8.41
2022-09-28T07:29:02.276Z,8.41
2022-09-28T07:30:02.418Z,8.41
2022-09-28T07:31:02.271Z,8.41
2022-09-28T07:32:02.278Z,8.42
2022-09-28T07:33:02.256Z,8.43
2022-09-28T07:34:02.216Z,8.44
2022-09-28T07:35:02.208Z,8.45
2022-09-28T07:36:02.519Z,8.45
2022-09-28T07:37:02.177Z,8.45
2022-09-28T07:38:02.167Z,8.45
2022-09-28T07:39:02.158Z,8.45
2022-09-28T07:40:02.152Z,8.46
2022-09-28T07:41:02.182Z,8.46
2022-09-28T07:42:02.952Z,8.48
2022-09-28T07:43:02.117Z,8.49
2022-09-28T07:44:02.102Z,8.51
2022-09-28T07:45:02.111Z,8.52
2022-09-28T07:46:02.145Z,8.53
2022-09-28T07:47:02.088Z,8.54
2022-09-28T07:48:02.372Z,8.55
2022-09-28T07:49:02.051Z,8.56
2022-09-28T07:50:02.059Z,8.56
2022-09-28T07:51:02.027Z,8.57
2022-09-28T07:52:02.025Z,8.58
2022-09-28T07:53:01.996Z,8.59
2022-09-28T07:54:02.209Z,8.59
2022-09-28T07:55:06.627Z,8.60
2022-09-28T07:56:03.096Z,8.60
2022-09-28T07:57:01.960Z,8.61
2022-09-28T07:58:01.962Z,8.62
2022-09-28T07:59:01.937Z,8.63
2022-09-28T08:00:02.157Z,8.65
2022-09-28T08:01:01.961Z,8.66
2022-09-28T08:02:01.943Z,8.67
2022-09-28T08:03:01.897Z,8.68
2022-09-28T08:04:01.909Z,8.69
2022-09-28T08:05:01.881Z,8.71
2022-09-28T08:06:02.188Z,8.72
2022-09-28T08:07:01.855Z,8.74
2022-09-28T08:08:01.850Z,8.75
2022-09-28T08:09:01.855Z,8.76
2022-09-28T08:10:01.842Z,8.77
2022-09-28T08:11:01.827Z,8.78
2022-09-28T08:12:02.015Z,8.80
2022-09-28T08:13:02.887Z,8.81
2022-09-28T08:14:01.791Z,8.81
2022-09-28T08:15:01.772Z,8.82
2022-09-28T08:16:01.766Z,8.83
2022-09-28T08:17:01.737Z,8.83
2022-09-28T08:18:02.879Z,8.84
2022-09-28T08:19:01.717Z,8.84
2022-09-28T08:20:01.717Z,8.84
2022-09-28T08:21:01.709Z,8.85
2022-09-28T08:22:01.685Z,8.85
2022-09-28T08:23:01.676Z,8.86
2022-09-28T08:24:01.851Z,8.86
2022-09-28T08:25:01.660Z,8.86
2022-09-28T08:26:01.661Z,8.86
2022-09-28T08:27:01.625Z,8.86
2022-09-28T08:28:01.625Z,8.86
2022-09-28T08:29:01.605Z,8.87
2022-09-28T08:30:01.840Z,8.87
2022-09-28T08:31:01.691Z,8.87
2022-09-28T08:32:02.025Z,8.88
2022-09-28T08:33:01.564Z,8.88
2022-09-28T08:34:01.564Z,8.88
2022-09-28T08:35:01.557Z,8.89
2022-09-28T08:36:01.699Z,8.89
2022-09-28T08:37:01.519Z,8.89
2022-09-28T08:38:01.515Z,8.90
2022-09-28T08:39:01.502Z,8.91
2022-09-28T08:40:01.496Z,8.91
2022-09-28T08:41:01.571Z,8.92
2022-09-28T08:42:01.726Z,8.92
2022-09-28T08:43:01.465Z,8.93
2022-09-28T08:44:01.458Z,8.93
2022-09-28T08:45:01.449Z,8.94
2022-09-28T08:46:01.549Z,8.94
2022-09-28T08:47:01.409Z,8.94
2022-09-28T08:48:01.591Z,8.95
2022-09-28T08:49:23.620Z,8.95
2022-09-28T08:50:02.397Z,8.95
2022-09-28T08:51:01.374Z,8.96
2022-09-28T08:52:01.359Z,8.96
2022-09-28T08:53:01.344Z,8.97
2022-09-28T08:54:01.514Z,8.97
2022-09-28T08:55:01.328Z,8.98
2022-09-28T08:56:01.322Z,8.98
2022-09-28T08:57:01.304Z,8.99
2022-09-28T08:58:01.317Z,8.99
2022-09-28T08:59:01.309Z,9.00
2022-09-28T09:00:01.439Z,9.00
2022-09-28T09:01:01.310Z,9.00
2022-09-28T09:02:01.736Z,9.00
2022-09-28T09:03:01.237Z,9.00
2022-09-28T09:04:01.277Z,9.00
2022-09-28T09:05:01.222Z,8.99
2022-09-28T09:06:01.378Z,9.00
2022-09-28T09:07:01.202Z,9.00
2022-09-28T09:08:01.197Z,8.99
2022-09-28T09:09:01.188Z,8.99
2022-09-28T09:10:01.194Z,8.99
2022-09-28T09:11:01.159Z,8.99
2022-09-28T09:12:01.322Z,8.98
2022-09-28T09:13:01.148Z,8.98
2022-09-28T09:14:01.113Z,8.98
2022-09-28T09:15:01.127Z,8.98
2022-09-28T09:16:01.111Z,8.98
2022-09-28T09:17:01.238Z,8.98
2022-09-28T09:18:01.443Z,8.98
2022-09-28T09:19:01.066Z,8.98
2022-09-28T09:20:01.063Z,8.97
2022-09-28T09:21:01.059Z,8.97
2022-09-28T09:22:01.035Z,8.97
2022-09-28T09:23:01.019Z,8.97
2022-09-28T09:24:01.332Z,8.98
2022-09-28T09:25:01.031Z,8.99
2022-09-28T09:26:00.992Z,8.99
2022-09-28T09:27:00.985Z,9.00
2022-09-28T09:28:00.977Z,9.01
2022-09-28T09:29:00.982Z,9.01
2022-09-28T09:30:01.184Z,9.02
2022-09-28T09:31:00.972Z,9.03
2022-09-28T09:32:00.979Z,9.05
2022-09-28T09:33:00.914Z,9.08
2022-09-28T09:34:00.916Z,9.10
2022-09-28T09:35:01.050Z,9.11
2022-09-28T09:36:01.095Z,9.13
2022-09-28T09:37:00.874Z,9.15
2022-09-28T09:38:00.854Z,9.17
2022-09-28T09:39:00.847Z,9.19
2022-09-28T09:40:00.847Z,9.21
2022-09-28T09:41:00.911Z,9.23
2022-09-28T09:42:01.016Z,9.24
2022-09-28T09:43:00.815Z,9.26
2022-09-28T09:44:00.797Z,9.27
2022-09-28T09:45:00.778Z,9.29
2022-09-28T09:46:00.879Z,9.30
2022-09-28T09:47:00.764Z,9.30
2022-09-28T09:48:00.945Z,9.31
2022-09-28T09:49:00.761Z,9.31
2022-09-28T09:50:04.058Z,9.31
2022-09-28T09:51:01.718Z,9.31
2022-09-28T09:52:00.716Z,9.31
2022-09-28T09:53:00.704Z,9.31
2022-09-28T09:54:01.044Z,9.30
2022-09-28T09:55:00.695Z,9.30
2022-09-28T09:56:00.656Z,9.30
2022-09-28T09:57:00.645Z,9.30
2022-09-28T09:58:00.639Z,9.30
2022-09-28T09:59:00.616Z,9.30
2022-09-28T10:00:00.795Z,9.30
2022-09-28T10:01:00.646Z,9.31
2022-09-28T10:02:00.632Z,9.31
2022-09-28T10:03:00.692Z,9.32
2022-09-28T10:04:00.576Z,9.33
2022-09-28T10:05:00.564Z,9.33
2022-09-28T10:06:00.952Z,9.34
2022-09-28T10:07:00.553Z,9.35
2022-09-28T10:08:00.534Z,9.37
2022-09-28T10:09:00.525Z,9.37
2022-09-28T10:10:00.503Z,9.38
2022-09-28T10:11:00.489Z,9.39
2022-09-28T10:12:00.891Z,9.40
2022-09-28T10:13:00.476Z,9.42
2022-09-28T10:14:00.468Z,9.43
2022-09-28T10:15:00.464Z,9.44
2022-09-28T10:16:00.453Z,9.45
2022-09-28T10:17:00.514Z,9.45
2022-09-28T10:18:00.753Z,9.45
2022-09-28T10:19:00.417Z,9.45
2022-09-28T10:20:00.397Z,9.45
2022-09-28T10:21:00.380Z,9.45
2022-09-28T10:22:00.367Z,9.46
2022-09-28T10:23:00.362Z,9.47
2022-09-28T10:24:00.523Z,9.49
2022-09-28T10:25:00.350Z,9.51
2022-09-28T10:26:00.337Z,9.53
2022-09-28T10:27:00.351Z,9.56
2022-09-28T10:28:00.293Z,9.59
2022-09-28T10:29:00.316Z,9.63
2022-09-28T10:30:00.465Z,9.66
2022-09-28T10:31:00.332Z,9.70
2022-09-28T10:32:00.261Z,9.74
2022-09-28T10:33:00.275Z,9.78
2022-09-28T10:34:00.236Z,9.84
2022-09-28T10:35:00.262Z,9.89
2022-09-28T10:36:00.394Z,9.94
2022-09-28T10:37:00.208Z,9.99
2022-09-28T10:38:00.218Z,10.02
2022-09-28T10:39:00.178Z,10.06
2022-09-28T10:40:00.204Z,10.09
2022-09-28T10:41:00.230Z,10.11
2022-09-28T10:42:00.495Z,10.14
2022-09-28T10:43:00.147Z,10.17
2022-09-28T10:44:00.134Z,10.19
2022-09-28T10:45:00.141Z,10.21
2022-09-28T10:46:00.192Z,10.22
2022-09-28T10:47:00.101Z,10.22
2022-09-28T10:48:00.830Z,10.21
2022-09-28T10:49:00.077Z,10.21
2022-09-28T10:50:00.085Z,10.20
2022-09-28T10:51:00.055Z,10.19
2022-09-28T10:52:00.065Z,10.19
2022-09-28T10:53:00.032Z,10.18
2022-09-28T10:54:00.204Z,10.18
2022-09-28T10:55:00.026Z,10.17
2022-09-28T10:56:00.004Z,10.17
2022-09-28T10:56:59.986Z,10.17
2022-09-28T10:57:59.985Z,10.17
2022-09-28T10:59:00.001Z,10.17
2022-09-28T11:00:00.139Z,10.18
2022-09-28T11:01:00.001Z,10.18
2022-09-28T11:02:00.029Z,10.18
2022-09-28T11:03:00.227Z,10.19
2022-09-28T11:03:59.911Z,10.19
2022-09-28T11:04:59.919Z,10.19
2022-09-28T11:06:00.213Z,10.18
2022-09-28T11:07:59.876Z,10.17
2022-09-28T11:08:59.872Z,10.15
2022-09-28T11:09:59.840Z,10.14
2022-09-28T11:10:59.841Z,10.13
2022-09-28T11:12:00.060Z,10.11
2022-09-28T11:12:59.831Z,10.09
2022-09-28T11:13:59.811Z,10.06
2022-09-28T11:14:59.816Z,10.04
2022-09-28T11:15:59.798Z,10.03
2022-09-28T11:16:59.817Z,10.02
2022-09-28T11:18:00.555Z,10.01
2022-09-28T11:18:59.801Z,10.00
2022-09-28T11:19:59.759Z,9.99
2022-09-28T11:20:59.721Z,9.99
2022-09-28T11:21:59.711Z,9.98
2022-09-28T11:22:59.840Z,9.97
2022-09-28T11:23:59.863Z,9.96
2022-09-28T11:24:59.691Z,9.95
2022-09-28T11:25:59.680Z,9.95
2022-09-28T11:26:59.673Z,9.95
2022-09-28T11:27:59.640Z,9.95
2022-09-28T11:28:59.644Z,9.95
2022-09-28T11:29:59.780Z,9.95
2022-09-28T11:30:59.718Z,9.94
2022-09-28T11:31:59.604Z,9.92
2022-09-28T11:32:59.602Z,9.91
2022-09-28T11:33:59.592Z,9.90
2022-09-28T11:35:00.382Z,9.90
2022-09-28T11:35:59.802Z,9.89
2022-09-28T11:37:01.731Z,9.89
2022-09-28T11:37:59.540Z,9.89
2022-09-28T11:38:59.524Z,9.89
2022-09-28T11:39:59.534Z,9.89
2022-09-28T11:40:59.620Z,9.88
2022-09-28T11:41:59.654Z,9.88
2022-09-28T11:42:59.576Z,9.87
2022-09-28T11:43:59.474Z,9.86
2022-09-28T11:44:59.486Z,9.86
2022-09-28T11:45:59.538Z,9.87
2022-09-28T11:46:59.442Z,9.88
2022-09-28T11:47:59.836Z,9.89
2022-09-28T11:48:59.428Z,9.91
2022-09-28T11:49:59.399Z,9.93
2022-09-28T11:50:59.402Z,9.94
2022-09-28T11:51:59.380Z,9.96
2022-09-28T11:52:59.380Z,9.97
2022-09-28T11:53:59.599Z,9.98
2022-09-28T11:54:59.368Z,10.00
2022-09-28T11:55:59.340Z,10.01
2022-09-28T11:56:59.324Z,10.03
2022-09-28T11:57:59.327Z,10.04
2022-09-28T11:58:59.309Z,10.05
2022-09-28T11:59:59.650Z,10.07
2022-09-28T12:00:59.301Z,10.08
2022-09-28T12:01:59.314Z,10.09
2022-09-28T12:02:59.337Z,10.10
2022-09-28T12:03:59.261Z,10.10
2022-09-28T12:05:06.654Z,10.11
2022-09-28T12:05:59.809Z,10.12
2022-09-28T12:06:59.238Z,10.13
2022-09-28T12:07:59.208Z,10.15
2022-09-28T12:08:59.199Z,10.16
2022-09-28T12:09:59.179Z,10.18
2022-09-28T12:10:59.185Z,10.21
2022-09-28T12:11:59.554Z,10.25
2022-09-28T12:12:59.152Z,10.31
2022-09-28T12:13:59.184Z,10.36
2022-09-28T12:14:59.159Z,10.42
2022-09-28T12:16:23.499Z,10.48
2022-09-28T12:17:06.874Z,10.53
2022-09-28T12:18:00.193Z,10.59
2022-09-28T12:19:59.091Z,10.67
2022-09-28T12:21:04.409Z,10.70
2022-09-28T12:22:00.072Z,10.72
2022-09-28T12:22:59.451Z,10.73
2022-09-28T12:23:59.106Z,10.74
2022-09-28T12:24:59.037Z,10.74
2022-09-28T12:25:59.021Z,10.74
2022-09-28T12:26:59.312Z,10.72
2022-09-28T12:27:58.997Z,10.71
2022-09-28T12:28:59.324Z,10.70
2022-09-28T12:29:58.967Z,10.70
2022-09-28T12:30:59.000Z,10.69
2022-09-28T12:31:58.958Z,10.68
2022-09-28T12:32:58.978Z,10.67
2022-09-28T12:33:58.949Z,10.66
2022-09-28T12:34:59.089Z,10.66
2022-09-28T12:35:58.910Z,10.66
2022-09-28T12:36:58.897Z,10.67
2022-09-28T12:37:58.887Z,10.70
2022-09-28T12:40:00.519Z,10.79
2022-09-28T12:40:58.932Z,10.85
2022-09-28T12:41:58.838Z,10.91
2022-09-28T12:42:58.848Z,10.97
2022-09-28T12:43:58.827Z,11.03
2022-09-28T12:44:59.713Z,11.09
2022-09-28T12:46:11.459Z,11.15
2022-09-28T12:46:59.854Z,11.19
2022-09-28T12:47:58.797Z,11.24
2022-09-28T12:49:47.208Z,11.28
2022-09-28T12:51:00.089Z,11.37
2022-09-28T12:51:58.796Z,11.41
2022-09-28T12:53:00.799Z,11.44
2022-09-28T12:53:58.707Z,11.45
2022-09-28T12:54:58.726Z,11.45
2022-09-28T12:55:58.699Z,11.44
2022-09-28T12:56:58.907Z,11.43
2022-09-28T12:57:58.664Z,11.42
2022-09-28T12:58:58.648Z,11.41
2022-09-28T12:59:58.648Z,11.40
2022-09-28T13:00:58.635Z,11.40
2022-09-28T13:01:58.734Z,11.39
2022-09-28T13:02:58.870Z,11.39
2022-09-28T13:03:58.620Z,11.39
2022-09-28T13:04:58.577Z,11.39
2022-09-28T13:05:58.589Z,11.39
2022-09-28T13:06:58.571Z,11.39
2022-09-28T13:07:58.563Z,11.39
2022-09-28T13:08:58.737Z,11.38
2022-09-28T13:09:58.921Z,11.37
2022-09-28T13:10:58.624Z,11.36
2022-09-28T13:11:58.506Z,11.35
2022-09-28T13:12:58.510Z,11.33
2022-09-28T13:13:58.485Z,11.32
2022-09-28T13:14:58.484Z,11.31
2022-09-28T13:15:58.977Z,11.30
2022-09-28T13:17:00.608Z,11.29
2022-09-28T13:17:58.447Z,11.28